Epworth, Iowa
Current Conditions -  °F | °C
As of 9:53 PM on Wednesday 22 Oct 2014 (Local Time) from KDBQ Reporting Station
Clear Clear  
Wind Chill: 41°   Ceiling: Unl
Heat Index: 47°   Visibility: 10mi
Dew Point: 37°   Wind: 14mph
Humidity: 68%   Direction: 160°SSE
Pressure: 30.2"   Gusts: NA
Location:  42.45°N, 90.93°W
Report Text: KDBQ 230253Z AUTO 16012KT 10SM CLR 08/03 A3020 RMK AO2 SLP232 T00830028 58003
Loading
Personal Weather Stations






























Interactive Weather Map
Tropical Storm Tracking
New forecast layout! Learn more

10-Day Weather Forecast

Advertisements
Track Severe Weather on mobile